Prospect Heights, Colorado
Current Conditions -  °F | °C
As of 1:35 AM on Thursday 29 Jan 2015 (Local Time) from K1V6 Reporting Station
Overcast Overcast  
Wind Chill: 36°   Ceiling: 10000
Heat Index: 39°   Visibility: 10mi
Dew Point: 32°   Wind: 5mph
Humidity: 75%   Direction: 30°NNE
Pressure: 30.36"   Gusts: NA
Location:  38.533°N, 105.389°W
Report Text: K1V6 290835Z AUTO 03004KT 10SM OVC100 04/00 A3036 RMK AO2
Loading
Personal Weather Stations






























Interactive Weather Map New forecast layout! Learn more

10-Day Weather Forecast

Advertisements
Track Severe Weather on mobile